createdAt,value
2022-10-07T00:00:49.599Z,52.88
2022-10-07T00:03:03.365Z,45.63
2022-10-07T00:05:04.986Z,51.85
2022-10-07T00:07:06.477Z,44.55
2022-10-07T00:09:08.545Z,51.40
2022-10-07T00:11:37.084Z,49.70
2022-10-07T00:13:39.783Z,45.67
2022-10-07T00:15:41.792Z,48.45
2022-10-07T00:17:45.390Z,47.13
2022-10-07T00:19:47.166Z,50.08
2022-10-07T00:21:48.895Z,46.22
2022-10-07T00:23:50.707Z,42.92
2022-10-07T00:25:52.223Z,52.45
2022-10-07T00:27:54.129Z,47.17
2022-10-07T00:29:55.630Z,47.25
2022-10-07T00:31:57.543Z,45.20
2022-10-07T00:33:59.584Z,43.53
2022-10-07T00:36:01.090Z,46.88
2022-10-07T00:38:02.846Z,45.25
2022-10-07T00:40:04.782Z,44.80
2022-10-07T00:42:06.390Z,46.13
2022-10-07T00:44:32.709Z,49.08
2022-10-07T00:46:36.013Z,43.35
2022-10-07T00:48:39.151Z,47.45
2022-10-07T00:50:40.708Z,45.85
2022-10-07T00:52:44.720Z,49.63
2022-10-07T00:54:47.530Z,42.67
2022-10-07T00:56:49.874Z,57.70
2022-10-07T00:58:52.817Z,42.00
2022-10-07T01:00:54.386Z,43.80
2022-10-07T01:02:55.972Z,45.33
2022-10-07T01:05:00.037Z,49.67
2022-10-07T01:07:01.660Z,44.28
2022-10-07T01:09:03.243Z,46.17
2022-10-07T01:11:14.142Z,47.00
2022-10-07T01:13:26.902Z,50.38
2022-10-07T01:15:28.413Z,43.85
2022-10-07T01:17:33.995Z,41.85
2022-10-07T01:19:50.556Z,43.25
2022-10-07T01:21:58.061Z,51.75
2022-10-07T01:24:09.086Z,42.28
2022-10-07T01:26:22.861Z,42.55
2022-10-07T01:28:33.176Z,45.53
2022-10-07T01:30:39.255Z,39.70
2022-10-07T01:32:47.814Z,39.83
2022-10-07T01:34:51.402Z,38.40
2022-10-07T01:36:54.344Z,44.80
2022-10-07T01:39:02.735Z,44.78
2022-10-07T01:41:07.517Z,39.72
2022-10-07T01:43:09.676Z,47.30
2022-10-07T01:45:13.288Z,46.70
2022-10-07T01:47:14.939Z,51.08
2022-10-07T01:49:16.706Z,62.00
2022-10-07T01:51:20.969Z,51.22
2022-10-07T01:53:25.939Z,51.33
2022-10-07T01:55:36.793Z,48.10
2022-10-07T01:57:57.215Z,45.67
2022-10-07T01:59:58.805Z,44.58
2022-10-07T02:02:21.283Z,45.72
2022-10-07T02:04:27.449Z,43.08
2022-10-07T02:06:31.986Z,46.42
2022-10-07T02:08:33.805Z,43.05
2022-10-07T02:10:38.348Z,44.03
2022-10-07T02:12:43.897Z,47.47
2022-10-07T02:14:50.741Z,43.92
2022-10-07T02:16:59.222Z,44.65
2022-10-07T02:19:03.156Z,36.50
2022-10-07T02:21:06.796Z,43.20
2022-10-07T02:23:10.408Z,40.42
2022-10-07T02:25:13.344Z,43.08
2022-10-07T02:27:16.482Z,39.92
2022-10-07T02:29:20.192Z,37.30
2022-10-07T02:31:23.893Z,40.22
2022-10-07T02:33:27.986Z,43.00
2022-10-07T02:35:35.812Z,40.72
2022-10-07T02:37:37.868Z,38.13
2022-10-07T02:39:39.810Z,36.35
2022-10-07T02:41:51.975Z,39.75
2022-10-07T02:43:56.350Z,44.88
2022-10-07T02:46:01.681Z,44.90
2022-10-07T02:48:07.153Z,41.75
2022-10-07T02:50:10.929Z,40.85
2022-10-07T02:52:15.053Z,38.38
2022-10-07T02:54:19.312Z,40.10
2022-10-07T02:56:22.556Z,60.72
2022-10-07T02:58:26.419Z,40.25
2022-10-07T03:00:29.627Z,44.70
2022-10-07T03:02:37.213Z,42.60
2022-10-07T03:04:39.099Z,41.70
2022-10-07T03:06:42.860Z,45.00
2022-10-07T03:08:44.540Z,38.20
2022-10-07T03:10:46.312Z,38.70
2022-10-07T03:12:48.131Z,37.90
2022-10-07T03:14:50.077Z,39.72
2022-10-07T03:16:52.557Z,40.53
2022-10-07T03:18:54.189Z,42.22
2022-10-07T03:20:56.847Z,38.03
2022-10-07T03:22:59.553Z,42.55
2022-10-07T03:25:01.071Z,37.13
2022-10-07T03:27:02.591Z,40.92
2022-10-07T03:29:05.031Z,41.10
2022-10-07T03:31:07.773Z,38.92
2022-10-07T03:33:09.556Z,35.08
2022-10-07T03:35:11.475Z,36.03
2022-10-07T03:37:13.136Z,39.15
2022-10-07T03:39:14.904Z,44.03
2022-10-07T03:41:17.497Z,36.55
2022-10-07T03:43:19.015Z,34.22
2022-10-07T03:45:20.887Z,35.50
2022-10-07T03:47:23.204Z,36.03
2022-10-07T03:49:25.460Z,35.35
2022-10-07T03:51:27.050Z,37.95
2022-10-07T03:53:29.677Z,37.47
2022-10-07T03:55:31.553Z,35.75
2022-10-07T03:57:54.308Z,37.13
2022-10-07T03:59:58.835Z,48.05
2022-10-07T04:02:00.495Z,31.00
2022-10-07T04:04:02.122Z,36.00
2022-10-07T04:06:03.936Z,41.22
2022-10-07T04:08:05.833Z,39.70
2022-10-07T04:10:07.750Z,41.33
2022-10-07T04:12:09.462Z,36.03
2022-10-07T04:14:11.014Z,36.97
2022-10-07T04:16:13.254Z,41.70
2022-10-07T04:18:15.090Z,40.47
2022-10-07T04:20:16.791Z,33.10
2022-10-07T04:22:18.381Z,40.25
2022-10-07T04:24:20.116Z,39.80
2022-10-07T04:26:21.668Z,38.47
2022-10-07T04:28:26.048Z,28.83
2022-10-07T04:30:28.938Z,37.28
2022-10-07T04:32:33.968Z,34.17
2022-10-07T04:34:35.560Z,37.05
2022-10-07T04:36:37.924Z,35.38
2022-10-07T04:38:39.707Z,45.87
2022-10-07T04:40:42.557Z,36.67
2022-10-07T04:45:04.571Z,46.95
2022-10-07T04:47:07.079Z,46.47
2022-10-07T04:49:10.035Z,42.30
2022-10-07T04:51:11.955Z,43.70
2022-10-07T04:53:14.868Z,43.85
2022-10-07T04:55:17.217Z,45.67
2022-10-07T04:57:18.859Z,41.03
2022-10-07T04:59:23.592Z,39.42
2022-10-07T05:01:26.331Z,43.22
2022-10-07T05:03:28.587Z,36.85
2022-10-07T05:05:30.110Z,35.70
2022-10-07T05:07:32.510Z,38.85
2022-10-07T05:09:34.039Z,32.63
2022-10-07T05:11:37.049Z,31.92
2022-10-07T05:13:38.828Z,32.58
2022-10-07T05:15:49.322Z,32.20
2022-10-07T05:17:50.894Z,28.20
2022-10-07T05:19:52.690Z,28.23
2022-10-07T05:21:54.263Z,29.92
2022-10-07T05:23:55.927Z,25.30
2022-10-07T05:25:58.760Z,25.23
2022-10-07T05:28:00.336Z,22.13
2022-10-07T05:30:01.971Z,22.92
2022-10-07T05:32:05.212Z,20.38
2022-10-07T05:34:07.851Z,19.73
2022-10-07T05:36:10.232Z,21.15
2022-10-07T05:38:13.118Z,24.85
2022-10-07T05:40:14.836Z,21.92
2022-10-07T05:42:16.529Z,19.50
2022-10-07T05:44:18.319Z,22.80
2022-10-07T05:46:24.071Z,24.05
2022-10-07T05:48:25.813Z,22.08
2022-10-07T05:50:27.720Z,22.90
2022-10-07T05:52:30.276Z,19.70
2022-10-07T05:54:33.260Z,24.45
2022-10-07T05:56:37.081Z,25.60
2022-10-07T05:58:38.933Z,23.45
2022-10-07T06:00:42.494Z,24.00
2022-10-07T06:02:44.466Z,17.20
2022-10-07T06:04:46.796Z,18.70
2022-10-07T06:06:48.410Z,18.63
2022-10-07T06:08:50.484Z,23.80
2022-10-07T06:11:11.027Z,17.55
2022-10-07T06:13:12.549Z,18.75
2022-10-07T06:15:14.581Z,17.17
2022-10-07T06:17:17.044Z,23.17
2022-10-07T06:19:22.721Z,22.98
2022-10-07T06:21:28.602Z,20.08
2022-10-07T06:23:30.972Z,21.70
2022-10-07T06:25:32.886Z,25.75
2022-10-07T06:27:34.891Z,18.80
2022-10-07T06:29:37.291Z,22.27
2022-10-07T06:31:39.048Z,17.90
2022-10-07T06:33:40.819Z,26.05
2022-10-07T06:35:42.675Z,23.83
2022-10-07T06:37:44.562Z,22.27
2022-10-07T06:39:46.496Z,23.17
2022-10-07T06:41:49.355Z,17.33
2022-10-07T06:43:54.596Z,24.52
2022-10-07T06:45:58.752Z,22.05
2022-10-07T06:48:00.763Z,19.27
2022-10-07T06:50:03.767Z,19.75
2022-10-07T06:52:05.570Z,17.55
2022-10-07T06:54:07.219Z,20.17
2022-10-07T06:56:09.044Z,19.42
2022-10-07T06:58:12.052Z,22.65
2022-10-07T07:00:14.287Z,28.48
2022-10-07T07:02:15.896Z,21.35
2022-10-07T07:04:17.791Z,26.10
2022-10-07T07:06:19.291Z,24.63
2022-10-07T07:08:22.078Z,56.40
2022-10-07T07:10:23.865Z,169.55
2022-10-07T07:12:25.709Z,66.75
2022-10-07T07:14:28.704Z,144.38
2022-10-07T07:16:31.315Z,22.85
2022-10-07T07:20:36.377Z,17.58
2022-10-07T07:22:38.555Z,27.40
2022-10-07T07:24:40.838Z,22.23
2022-10-07T07:26:42.925Z,17.38
2022-10-07T07:28:45.038Z,19.25
2022-10-07T07:30:49.130Z,21.17
2022-10-07T07:32:50.782Z,13.85
2022-10-07T07:36:59.191Z,19.63
2022-10-07T07:39:02.456Z,22.10
2022-10-07T07:41:05.502Z,22.90
2022-10-07T07:43:07.293Z,19.70
2022-10-07T07:45:09.034Z,21.70
2022-10-07T07:47:11.158Z,22.38
2022-10-07T07:49:13.153Z,24.13
2022-10-07T07:51:15.860Z,25.33
2022-10-07T07:53:17.745Z,17.70
2022-10-07T07:55:21.024Z,20.13
2022-10-07T07:57:22.786Z,20.45
2022-10-07T07:59:25.202Z,13.60
2022-10-07T08:01:26.945Z,19.55
2022-10-07T08:03:28.954Z,11.47
2022-10-07T08:05:34.091Z,17.77
2022-10-07T08:07:36.036Z,19.95
2022-10-07T08:09:37.554Z,16.67
2022-10-07T08:11:40.798Z,15.45
2022-10-07T08:13:42.429Z,16.17
2022-10-07T08:15:44.111Z,13.50
2022-10-07T08:17:46.219Z,14.13
2022-10-07T08:19:48.213Z,16.20
2022-10-07T08:21:49.807Z,14.38
2022-10-07T08:23:52.711Z,11.45
2022-10-07T08:25:55.351Z,15.85
2022-10-07T08:27:57.813Z,12.68
2022-10-07T08:32:01.429Z,11.50
2022-10-07T08:34:04.022Z,11.35
2022-10-07T08:38:09.605Z,11.63
2022-10-07T08:40:14.243Z,21.25
2022-10-07T08:42:27.686Z,13.35
2022-10-07T08:46:32.519Z,17.30
2022-10-07T08:48:38.997Z,8.75
2022-10-07T08:50:43.427Z,15.23
2022-10-07T08:52:47.729Z,13.45
2022-10-07T08:54:50.768Z,9.55
2022-10-07T08:59:06.934Z,12.65
2022-10-07T09:01:29.503Z,12.23
2022-10-07T09:03:36.812Z,13.50
2022-10-07T09:05:41.146Z,9.63
2022-10-07T09:07:48.711Z,10.82
2022-10-07T09:09:55.233Z,16.00
2022-10-07T09:11:57.743Z,11.25
2022-10-07T09:14:02.495Z,14.52
2022-10-07T09:16:04.134Z,10.90
2022-10-07T09:18:11.067Z,13.48
2022-10-07T09:20:16.380Z,8.48
2022-10-07T09:22:21.428Z,9.95
2022-10-07T09:24:24.925Z,8.52
2022-10-07T09:26:27.673Z,11.82
2022-10-07T09:28:31.685Z,8.25
2022-10-07T09:30:33.318Z,12.75
2022-10-07T09:32:42.745Z,12.05
2022-10-07T09:34:44.776Z,8.40
2022-10-07T09:37:08.792Z,7.00
2022-10-07T09:39:23.038Z,7.05
2022-10-07T09:41:31.322Z,11.70
2022-10-07T09:43:33.782Z,9.57
2022-10-07T09:45:36.642Z,6.57
2022-10-07T09:47:40.438Z,5.35
2022-10-07T09:49:43.402Z,7.65
2022-10-07T09:51:58.383Z,6.90
2022-10-07T09:54:04.154Z,12.18
2022-10-07T09:56:05.930Z,10.85
2022-10-07T09:58:18.529Z,7.38
2022-10-07T10:00:24.317Z,10.05
2022-10-07T10:02:26.439Z,5.75
2022-10-07T10:04:30.928Z,9.93
2022-10-07T10:06:32.483Z,6.03
2022-10-07T10:08:37.697Z,4.72
2022-10-07T10:10:39.689Z,7.75
2022-10-07T10:12:49.369Z,9.27
2022-10-07T10:14:52.494Z,6.97
2022-10-07T10:16:54.425Z,11.07
2022-10-07T10:19:02.209Z,6.57
2022-10-07T10:21:15.865Z,4.43
2022-10-07T10:23:35.649Z,7.35
2022-10-07T10:25:59.320Z,8.85
2022-10-07T10:30:05.785Z,4.82
2022-10-07T10:32:13.362Z,13.57
2022-10-07T10:34:44.095Z,7.00
2022-10-07T10:36:49.726Z,7.32
2022-10-07T10:39:00.151Z,5.60
2022-10-07T10:41:01.677Z,9.30
2022-10-07T10:43:22.012Z,4.18
2022-10-07T10:45:35.859Z,8.27
2022-10-07T10:47:37.372Z,6.63
2022-10-07T10:49:48.715Z,8.10
2022-10-07T10:52:02.831Z,8.50
2022-10-07T10:54:19.647Z,8.90
2022-10-07T10:56:21.526Z,5.85
2022-10-07T10:58:24.170Z,5.18
2022-10-07T11:00:29.810Z,7.03
2022-10-07T11:02:48.536Z,4.75
2022-10-07T11:04:57.493Z,5.63
2022-10-07T11:07:12.173Z,7.75
2022-10-07T11:09:16.343Z,10.80
2022-10-07T11:11:19.232Z,5.22
2022-10-07T11:15:22.688Z,5.32
2022-10-07T11:17:27.205Z,8.52
2022-10-07T11:19:31.973Z,7.05
2022-10-07T11:21:40.135Z,4.75
2022-10-07T11:23:41.943Z,4.07
2022-10-07T11:25:47.755Z,4.35
2022-10-07T11:27:51.695Z,7.05
2022-10-07T11:29:53.285Z,4.72
2022-10-07T11:32:21.540Z,6.68
2022-10-07T11:34:30.947Z,4.38
2022-10-07T11:36:39.871Z,6.43
2022-10-07T11:38:42.145Z,4.95
2022-10-07T11:40:49.691Z,6.13
2022-10-07T11:42:52.432Z,6.70
2022-10-07T11:45:03.242Z,4.90
2022-10-07T11:47:06.356Z,6.00
2022-10-07T11:51:10.143Z,6.05
2022-10-07T11:53:18.381Z,3.75
2022-10-07T11:55:23.176Z,7.45
2022-10-07T11:57:25.745Z,5.90
2022-10-07T11:59:40.041Z,6.93
2022-10-07T12:01:51.324Z,3.20
2022-10-07T12:03:53.971Z,5.07
2022-10-07T12:05:57.619Z,6.15
2022-10-07T12:08:00.656Z,7.05
2022-10-07T12:10:03.242Z,6.13
2022-10-07T12:12:12.199Z,7.25
2022-10-07T12:14:30.058Z,11.02
2022-10-07T12:16:31.701Z,16.27
2022-10-07T12:18:33.654Z,7.63
2022-10-07T12:20:35.427Z,3.97
2022-10-07T12:22:36.968Z,9.35
2022-10-07T12:24:43.339Z,7.10
2022-10-07T12:26:46.521Z,7.63
2022-10-07T12:28:48.770Z,8.93
2022-10-07T12:30:52.361Z,5.60
2022-10-07T12:33:00.717Z,5.80
2022-10-07T12:35:25.285Z,7.13
2022-10-07T12:37:45.392Z,9.38
2022-10-07T12:39:47.282Z,9.00
2022-10-07T12:41:49.080Z,11.07
2022-10-07T12:43:50.990Z,8.40
2022-10-07T12:45:53.412Z,7.70
2022-10-07T12:47:56.458Z,7.45
2022-10-07T12:50:01.255Z,7.22
2022-10-07T12:52:05.266Z,9.38
2022-10-07T12:54:13.487Z,9.85
2022-10-07T12:56:21.331Z,6.32
2022-10-07T12:58:42.240Z,6.40
2022-10-07T13:00:54.573Z,8.10
2022-10-07T13:03:17.020Z,5.85
2022-10-07T13:05:37.781Z,8.88
2022-10-07T13:07:58.382Z,8.88
2022-10-07T13:10:26.564Z,5.60
2022-10-07T13:12:28.253Z,8.50
2022-10-07T13:14:29.899Z,10.05
2022-10-07T13:16:36.884Z,6.05
2022-10-07T13:18:53.928Z,8.30
2022-10-07T13:21:14.013Z,5.20
2022-10-07T13:23:20.973Z,5.57
2022-10-07T13:25:27.260Z,6.53
2022-10-07T13:27:30.545Z,5.40
2022-10-07T13:29:33.749Z,6.80
2022-10-07T13:33:37.569Z,9.27
2022-10-07T13:35:40.089Z,7.00
2022-10-07T13:37:44.978Z,7.45
2022-10-07T13:39:46.520Z,7.47
2022-10-07T13:41:49.748Z,15.88
2022-10-07T13:45:57.661Z,6.63
2022-10-07T13:48:00.104Z,12.73
2022-10-07T13:50:02.404Z,6.32
2022-10-07T13:52:06.645Z,11.38
2022-10-07T13:54:19.510Z,6.63
2022-10-07T13:56:21.994Z,6.00
2022-10-07T13:58:23.598Z,10.57
2022-10-07T14:00:25.527Z,8.43
2022-10-07T14:02:27.280Z,5.22
2022-10-07T14:04:31.328Z,5.07
2022-10-07T14:06:37.056Z,7.85
2022-10-07T14:08:49.943Z,8.80
2022-10-07T14:10:53.606Z,5.57
2022-10-07T14:12:58.093Z,5.13
2022-10-07T14:15:01.638Z,7.90
2022-10-07T14:17:07.712Z,6.93
2022-10-07T14:19:18.630Z,9.70
2022-10-07T14:21:22.383Z,10.07
2022-10-07T14:23:26.218Z,8.25
2022-10-07T14:25:29.622Z,8.13
2022-10-07T14:27:52.272Z,7.53
2022-10-07T14:29:54.084Z,6.00
2022-10-07T14:32:31.351Z,6.13
2022-10-07T14:35:01.208Z,8.73
2022-10-07T14:37:06.479Z,6.47
2022-10-07T14:39:30.151Z,8.02
2022-10-07T14:43:33.895Z,13.40
2022-10-07T14:45:35.524Z,6.90
2022-10-07T14:47:37.229Z,10.45
2022-10-07T14:49:42.296Z,10.57
2022-10-07T14:51:44.526Z,6.43
2022-10-07T14:53:49.325Z,10.75
2022-10-07T14:55:51.656Z,10.10
2022-10-07T14:57:53.949Z,10.67
2022-10-07T14:59:56.184Z,11.98
2022-10-07T15:01:58.656Z,10.50
2022-10-07T15:04:00.297Z,9.27
2022-10-07T15:06:01.921Z,15.98
2022-10-07T15:08:04.341Z,7.30
2022-10-07T15:10:12.042Z,9.23
2022-10-07T15:12:15.122Z,23.02
2022-10-07T15:14:17.201Z,9.75
2022-10-07T15:16:20.548Z,9.18
2022-10-07T15:18:22.390Z,10.40
2022-10-07T15:20:24.260Z,9.00
2022-10-07T15:22:25.937Z,9.15
2022-10-07T15:24:29.091Z,8.95
2022-10-07T15:26:32.547Z,9.88
2022-10-07T15:28:34.226Z,11.85
2022-10-07T15:30:39.347Z,8.30
2022-10-07T15:32:41.454Z,13.05
2022-10-07T15:34:43.867Z,12.48
2022-10-07T15:36:48.569Z,14.63
2022-10-07T15:38:50.767Z,11.73
2022-10-07T15:40:54.467Z,10.90
2022-10-07T15:42:57.348Z,12.50
2022-10-07T15:44:59.116Z,14.63
2022-10-07T15:47:00.677Z,8.15
2022-10-07T15:49:03.728Z,6.53
2022-10-07T15:51:05.649Z,11.30
2022-10-07T15:53:07.244Z,10.80
2022-10-07T15:55:08.938Z,22.92
2022-10-07T15:57:10.714Z,15.02
2022-10-07T15:59:12.351Z,11.90
2022-10-07T16:01:15.081Z,17.02
2022-10-07T16:05:18.919Z,13.38
2022-10-07T16:07:20.480Z,14.40
2022-10-07T16:09:22.653Z,14.85
2022-10-07T16:11:24.687Z,13.68
2022-10-07T16:13:27.005Z,10.37
2022-10-07T16:15:28.961Z,9.68
2022-10-07T16:17:30.590Z,14.25
2022-10-07T16:19:32.146Z,11.02
2022-10-07T16:21:35.266Z,10.95
2022-10-07T16:25:38.345Z,13.80
2022-10-07T16:27:58.734Z,11.32
2022-10-07T16:30:18.907Z,11.75
2022-10-07T16:32:20.408Z,8.98
2022-10-07T16:34:22.131Z,11.73
2022-10-07T16:36:25.438Z,10.65
2022-10-07T16:38:26.962Z,10.18
2022-10-07T16:40:28.711Z,13.95
2022-10-07T16:42:30.278Z,16.45
2022-10-07T16:44:32.070Z,12.05
2022-10-07T16:46:34.361Z,10.48
2022-10-07T16:48:40.374Z,16.10
2022-10-07T16:50:47.022Z,11.70
2022-10-07T16:52:48.971Z,12.30
2022-10-07T16:54:50.739Z,11.27
2022-10-07T16:56:52.737Z,13.13
2022-10-07T16:58:56.166Z,13.55
2022-10-07T17:01:02.465Z,19.45
2022-10-07T17:03:04.027Z,11.63
2022-10-07T17:05:05.867Z,14.05
2022-10-07T17:07:07.483Z,12.80
2022-10-07T17:09:08.983Z,16.17
2022-10-07T17:11:28.385Z,13.80
2022-10-07T17:13:31.110Z,11.20
2022-10-07T17:15:32.631Z,9.13
2022-10-07T17:17:34.692Z,9.93
2022-10-07T17:19:36.679Z,12.70
2022-10-07T17:21:40.760Z,12.13
2022-10-07T17:23:43.712Z,10.70
2022-10-07T17:25:46.350Z,11.15
2022-10-07T17:27:48.552Z,13.07
2022-10-07T17:29:50.826Z,13.23
2022-10-07T17:31:53.525Z,9.52
2022-10-07T17:33:56.441Z,11.93
2022-10-07T17:36:06.940Z,12.18
2022-10-07T17:38:08.493Z,12.20
2022-10-07T17:40:10.379Z,10.57
2022-10-07T17:42:12.235Z,10.63
2022-10-07T17:44:13.925Z,11.68
2022-10-07T17:46:17.474Z,11.48
2022-10-07T17:48:29.757Z,12.95
2022-10-07T17:50:31.678Z,11.93
2022-10-07T17:52:36.276Z,12.83
2022-10-07T17:54:39.196Z,11.27
2022-10-07T17:56:40.792Z,12.80
2022-10-07T17:58:43.804Z,9.95
2022-10-07T18:00:46.056Z,9.93
2022-10-07T18:02:49.642Z,10.37
2022-10-07T18:04:51.742Z,11.10
2022-10-07T18:06:53.743Z,12.90
2022-10-07T18:08:55.319Z,9.18
2022-10-07T18:10:56.911Z,11.18
2022-10-07T18:13:17.323Z,13.07
2022-10-07T18:15:22.152Z,13.27
2022-10-07T18:17:24.549Z,15.00
2022-10-07T18:19:26.863Z,12.73
2022-10-07T18:23:32.009Z,16.48
2022-10-07T18:25:35.477Z,17.33
2022-10-07T18:27:37.912Z,13.07
2022-10-07T18:29:39.471Z,12.55
2022-10-07T18:31:41.287Z,12.63
2022-10-07T18:33:43.281Z,12.93
2022-10-07T18:35:44.922Z,16.65
2022-10-07T18:37:47.270Z,12.97
2022-10-07T18:39:50.349Z,12.30
2022-10-07T18:41:51.924Z,11.70
2022-10-07T18:43:56.939Z,16.63
2022-10-07T18:46:02.854Z,17.00
2022-10-07T18:48:04.659Z,13.50
2022-10-07T18:50:06.662Z,14.25
2022-10-07T18:52:08.643Z,18.65
2022-10-07T18:54:10.703Z,12.47
2022-10-07T18:56:16.173Z,19.25
2022-10-07T18:58:18.200Z,14.63
2022-10-07T19:00:19.815Z,14.57
2022-10-07T19:02:21.803Z,17.30
2022-10-07T19:04:23.425Z,13.48
2022-10-07T19:06:25.906Z,15.70
2022-10-07T19:08:27.778Z,12.35
2022-10-07T19:10:29.465Z,14.75
2022-10-07T19:12:49.765Z,12.65
2022-10-07T19:14:51.868Z,15.63
2022-10-07T19:16:53.940Z,17.60
2022-10-07T19:18:56.814Z,17.10
2022-10-07T19:20:59.033Z,15.13
2022-10-07T19:23:00.805Z,12.37
2022-10-07T19:25:21.114Z,16.65
2022-10-07T19:27:22.933Z,16.13
2022-10-07T19:29:24.529Z,12.57
2022-10-07T19:31:29.072Z,16.65
2022-10-07T19:33:30.903Z,14.80
2022-10-07T19:35:33.930Z,17.73
2022-10-07T19:39:37.429Z,18.23
2022-10-07T19:41:38.995Z,15.05
2022-10-07T19:43:41.478Z,17.05
2022-10-07T19:45:43.675Z,17.10
2022-10-07T19:47:45.696Z,16.37
2022-10-07T19:49:49.116Z,15.65
2022-10-07T19:51:50.949Z,13.45
2022-10-07T19:53:53.023Z,12.98
2022-10-07T19:55:54.662Z,15.83
2022-10-07T19:57:57.582Z,14.82
2022-10-07T19:59:59.140Z,17.52
2022-10-07T20:02:01.378Z,17.35
2022-10-07T20:04:05.664Z,17.33
2022-10-07T20:06:11.070Z,17.27
2022-10-07T20:08:14.462Z,15.07
2022-10-07T20:10:16.755Z,16.73
2022-10-07T20:12:18.992Z,15.33
2022-10-07T20:14:20.598Z,17.10
2022-10-07T20:16:24.599Z,17.88
2022-10-07T20:18:26.390Z,16.92
2022-10-07T20:20:28.011Z,16.70
2022-10-07T20:22:29.908Z,16.13
2022-10-07T20:24:31.735Z,14.88
2022-10-07T20:26:35.099Z,16.67
2022-10-07T20:28:40.106Z,15.02
2022-10-07T20:30:41.719Z,16.83
2022-10-07T20:32:43.533Z,17.70
2022-10-07T20:34:45.443Z,18.98
2022-10-07T20:36:50.313Z,17.45
2022-10-07T20:39:19.501Z,17.80
2022-10-07T20:41:40.906Z,15.50
2022-10-07T20:43:42.441Z,20.13
2022-10-07T20:45:59.354Z,16.05
2022-10-07T20:48:01.408Z,19.25
2022-10-07T20:50:03.666Z,19.23
2022-10-07T20:52:06.997Z,26.50
2022-10-07T20:54:08.759Z,19.80
2022-10-07T20:56:10.357Z,17.33
2022-10-07T20:58:15.077Z,22.20
2022-10-07T21:00:16.954Z,20.15
2022-10-07T21:02:19.386Z,17.70
2022-10-07T21:04:21.069Z,19.40
2022-10-07T21:06:22.813Z,19.02
2022-10-07T21:08:25.720Z,18.33
2022-10-07T21:10:27.315Z,20.08
2022-10-07T21:12:29.057Z,18.92
2022-10-07T21:14:30.907Z,23.00
2022-10-07T21:16:35.353Z,19.60
2022-10-07T21:18:38.583Z,18.30
2022-10-07T21:20:52.965Z,21.92
2022-10-07T21:22:57.315Z,19.65
2022-10-07T21:24:59.228Z,18.00
2022-10-07T21:27:02.762Z,22.23
2022-10-07T21:29:08.014Z,22.30
2022-10-07T21:31:11.303Z,21.17
2022-10-07T21:33:13.162Z,20.73
2022-10-07T21:35:14.831Z,16.25
2022-10-07T21:37:16.584Z,21.25
2022-10-07T21:39:18.420Z,20.30
2022-10-07T21:41:21.121Z,20.67
2022-10-07T21:43:23.250Z,25.40
2022-10-07T21:45:24.758Z,16.80
2022-10-07T21:47:26.797Z,18.83
2022-10-07T21:49:28.585Z,24.37
2022-10-07T21:51:32.032Z,20.08
2022-10-07T21:53:33.767Z,20.90
2022-10-07T21:55:36.495Z,18.90
2022-10-07T21:57:40.332Z,22.00
2022-10-07T21:59:41.875Z,17.52
2022-10-07T22:01:49.977Z,21.13
2022-10-07T22:03:55.569Z,18.83
2022-10-07T22:06:07.298Z,28.70
2022-10-07T22:08:34.830Z,20.60
2022-10-07T22:10:36.643Z,21.60
2022-10-07T22:12:38.201Z,24.95
2022-10-07T22:14:40.060Z,23.15
2022-10-07T22:16:42.123Z,25.55
2022-10-07T22:18:49.347Z,21.30
2022-10-07T22:20:51.086Z,21.45
2022-10-07T22:23:02.054Z,20.17
2022-10-07T22:25:04.179Z,24.52
2022-10-07T22:27:05.999Z,20.85
2022-10-07T22:29:09.395Z,25.90
2022-10-07T22:31:11.159Z,20.83
2022-10-07T22:33:15.287Z,21.00
2022-10-07T22:35:34.972Z,23.40
2022-10-07T22:37:36.744Z,21.42
2022-10-07T22:39:38.696Z,19.10
2022-10-07T22:41:40.386Z,19.02
2022-10-07T22:43:44.719Z,21.60
2022-10-07T22:45:57.062Z,20.60
2022-10-07T22:47:58.641Z,21.58
2022-10-07T22:50:00.383Z,21.05
2022-10-07T22:52:02.284Z,19.02
2022-10-07T22:54:03.900Z,24.80
2022-10-07T22:56:06.353Z,22.83
2022-10-07T22:58:08.219Z,21.92
2022-10-07T23:00:10.123Z,21.75
2022-10-07T23:02:11.777Z,19.08
2022-10-07T23:04:13.570Z,23.88
2022-10-07T23:06:18.679Z,20.80
2022-10-07T23:08:20.328Z,21.35
2022-10-07T23:10:23.224Z,18.92
2022-10-07T23:12:24.755Z,20.90
2022-10-07T23:14:26.267Z,22.80
2022-10-07T23:16:29.687Z,21.58
2022-10-07T23:18:32.177Z,26.05
2022-10-07T23:20:33.821Z,20.25
2022-10-07T23:22:35.650Z,18.77
2022-10-07T23:24:37.222Z,24.35
2022-10-07T23:26:38.981Z,23.63
2022-10-07T23:28:40.795Z,20.58
2022-10-07T23:30:42.374Z,20.35
2022-10-07T23:32:46.077Z,20.50
2022-10-07T23:34:48.020Z,26.05
2022-10-07T23:36:49.943Z,25.65
2022-10-07T23:38:52.009Z,25.17
2022-10-07T23:40:54.496Z,23.20
2022-10-07T23:42:56.140Z,21.67
2022-10-07T23:45:01.468Z,21.60
2022-10-07T23:47:03.908Z,21.13
2022-10-07T23:49:05.932Z,23.60
2022-10-07T23:51:08.668Z,26.25
2022-10-07T23:53:10.731Z,25.60
2022-10-07T23:55:13.099Z,21.40
2022-10-07T23:57:14.614Z,20.80
2022-10-07T23:59:17.909Z,21.88
